createdAt,value
2023-02-15T00:01:45.219Z,0.95
2023-02-15T00:04:15.487Z,1.00
2023-02-15T00:06:44.497Z,0.76
2023-02-15T00:09:12.983Z,0.79
2023-02-15T00:11:50.602Z,0.90
2023-02-15T00:14:22.067Z,0.98
2023-02-15T00:16:51.360Z,0.84
2023-02-15T00:19:21.277Z,0.88
2023-02-15T00:21:50.881Z,0.91
2023-02-15T00:24:20.278Z,0.94
2023-02-15T00:26:49.166Z,0.92
2023-02-15T00:29:18.898Z,0.86
2023-02-15T00:31:46.584Z,0.81
2023-02-15T00:34:16.550Z,0.77
2023-02-15T00:36:44.568Z,0.73
2023-02-15T00:39:14.442Z,0.72
2023-02-15T00:41:42.422Z,0.74
2023-02-15T00:44:10.676Z,0.72
2023-02-15T00:46:38.575Z,0.72
2023-02-15T00:49:06.813Z,0.70
2023-02-15T00:51:34.748Z,0.74
2023-02-15T00:54:02.863Z,0.67
2023-02-15T00:56:32.320Z,0.81
2023-02-15T00:59:00.037Z,0.91
2023-02-15T01:01:28.301Z,0.83
2023-02-15T01:03:56.016Z,0.75
2023-02-15T01:06:23.786Z,0.74
2023-02-15T01:08:51.460Z,0.78
2023-02-15T01:14:12.496Z,0.50
2023-02-15T01:16:40.276Z,0.51
2023-02-15T01:19:08.115Z,0.67
2023-02-15T01:21:36.182Z,0.38
2023-02-15T01:24:04.682Z,0.31
2023-02-15T01:26:32.350Z,0.27
2023-02-15T01:29:00.313Z,0.27
2023-02-15T01:31:29.340Z,0.23
2023-02-15T01:33:57.094Z,0.26
2023-02-15T01:36:24.765Z,0.15
2023-02-15T01:38:53.321Z,0.23
2023-02-15T01:41:28.531Z,0.20
2023-02-15T01:43:57.989Z,0.13
2023-02-15T01:46:35.375Z,0.10
2023-02-15T01:49:11.032Z,0.11
2023-02-15T01:51:41.750Z,0.09
2023-02-15T01:54:13.128Z,0.04
2023-02-15T01:56:43.033Z,-0.02
2023-02-15T01:59:16.757Z,0.07
2023-02-15T02:01:46.364Z,0.12
2023-02-15T02:04:19.380Z,0.08
2023-02-15T02:06:50.342Z,0.26
2023-02-15T02:09:18.041Z,0.30
2023-02-15T02:11:48.557Z,0.39
2023-02-15T02:14:17.305Z,0.35
2023-02-15T02:16:55.771Z,0.30
2023-02-15T02:19:53.207Z,0.37
2023-02-15T02:22:54.412Z,0.44
2023-02-15T02:25:54.379Z,0.47
2023-02-15T02:28:48.131Z,0.50
2023-02-15T02:31:34.562Z,0.50
2023-02-15T02:34:07.983Z,0.52
2023-02-15T02:36:43.207Z,0.52
2023-02-15T02:39:28.411Z,0.55
2023-02-15T02:42:02.701Z,0.53
2023-02-15T02:44:37.175Z,0.63
2023-02-15T02:47:13.870Z,0.60
2023-02-15T02:49:44.718Z,0.57
2023-02-15T02:52:37.653Z,0.60
2023-02-15T02:55:08.929Z,0.60
2023-02-15T02:57:42.572Z,0.45
2023-02-15T03:00:11.535Z,0.63
2023-02-15T03:02:43.297Z,0.48
2023-02-15T03:05:18.377Z,0.56
2023-02-15T03:07:51.984Z,0.51
2023-02-15T03:10:22.723Z,0.51
2023-02-15T03:12:53.706Z,0.51
2023-02-15T03:15:24.101Z,0.50
2023-02-15T03:17:57.588Z,0.46
2023-02-15T03:20:31.804Z,0.41
2023-02-15T03:23:07.620Z,0.46
2023-02-15T03:25:40.661Z,0.57
2023-02-15T03:28:11.432Z,0.47
2023-02-15T03:30:42.084Z,0.46
2023-02-15T03:33:11.842Z,0.43
2023-02-15T03:35:47.503Z,0.55
2023-02-15T03:38:22.629Z,0.43
2023-02-15T03:41:08.648Z,0.47
2023-02-15T03:43:44.102Z,0.38
2023-02-15T03:46:18.397Z,0.54
2023-02-15T03:48:50.082Z,0.43
2023-02-15T03:51:37.424Z,0.40
2023-02-15T03:54:08.651Z,0.29
2023-02-15T03:56:38.794Z,0.38
2023-02-15T03:59:24.254Z,0.43
2023-02-15T04:02:01.502Z,0.49
2023-02-15T04:04:35.266Z,0.49
2023-02-15T04:07:06.660Z,0.47
2023-02-15T04:09:52.202Z,0.47
2023-02-15T04:12:20.131Z,0.65
2023-02-15T04:15:05.236Z,0.59
2023-02-15T04:17:32.927Z,0.47
2023-02-15T04:20:18.272Z,0.53
2023-02-15T04:23:04.854Z,0.40
2023-02-15T04:25:32.546Z,0.26
2023-02-15T04:28:00.218Z,0.34
2023-02-15T04:30:28.377Z,0.33
2023-02-15T04:32:58.008Z,0.24
2023-02-15T04:35:26.655Z,0.38
2023-02-15T04:37:56.685Z,0.38
2023-02-15T04:40:24.429Z,0.29
2023-02-15T04:42:52.212Z,0.28
2023-02-15T04:45:19.938Z,0.35
2023-02-15T04:47:47.779Z,0.38
2023-02-15T04:50:15.511Z,0.33
2023-02-15T04:52:43.209Z,0.32
2023-02-15T04:55:12.223Z,0.30
2023-02-15T04:57:39.972Z,0.20
2023-02-15T05:00:09.930Z,0.21
2023-02-15T05:02:37.776Z,0.16
2023-02-15T05:05:05.713Z,0.18
2023-02-15T05:07:33.361Z,0.29
2023-02-15T05:10:01.051Z,0.24
2023-02-15T05:12:30.027Z,0.12
2023-02-15T05:14:57.634Z,0.16
2023-02-15T05:17:25.751Z,0.16
2023-02-15T05:19:53.441Z,0.24
2023-02-15T05:22:21.175Z,0.23
2023-02-15T05:25:06.595Z,0.33
2023-02-15T05:27:53.070Z,0.34
2023-02-15T05:30:21.008Z,0.44
2023-02-15T05:32:48.794Z,0.39
2023-02-15T05:35:17.686Z,0.36
2023-02-15T05:37:45.445Z,0.45
2023-02-15T05:40:13.658Z,0.41
2023-02-15T05:42:42.746Z,0.27
2023-02-15T05:45:10.802Z,0.35
2023-02-15T05:47:38.556Z,0.34
2023-02-15T05:50:07.504Z,0.25
2023-02-15T05:52:35.393Z,0.37
2023-02-15T05:55:03.583Z,0.44
2023-02-15T05:57:31.250Z,0.40
2023-02-15T06:00:00.248Z,0.39
2023-02-15T06:02:27.881Z,0.50
2023-02-15T06:04:55.525Z,0.58
2023-02-15T06:07:23.126Z,0.48
2023-02-15T06:09:50.757Z,0.55
2023-02-15T06:12:18.441Z,0.57
2023-02-15T06:14:46.134Z,0.45
2023-02-15T06:17:15.291Z,0.42
2023-02-15T06:19:42.966Z,0.46
2023-02-15T06:22:10.576Z,0.41
2023-02-15T06:24:38.211Z,0.51
2023-02-15T06:27:05.913Z,0.39
2023-02-15T06:29:33.534Z,0.42
2023-02-15T06:32:01.271Z,0.51
2023-02-15T06:34:30.475Z,0.51
2023-02-15T06:36:58.295Z,0.34
2023-02-15T06:39:26.076Z,0.37
2023-02-15T06:41:53.736Z,0.25
2023-02-15T06:44:21.432Z,0.22
2023-02-15T06:46:49.165Z,0.52
2023-02-15T06:49:16.895Z,0.51
2023-02-15T06:51:45.871Z,0.56
2023-02-15T06:54:13.585Z,0.51
2023-02-15T06:56:41.226Z,0.54
2023-02-15T06:59:08.850Z,0.57
2023-02-15T07:01:37.919Z,0.56
2023-02-15T07:04:05.965Z,0.60
2023-02-15T07:06:33.970Z,0.65
2023-02-15T07:09:03.007Z,0.67
2023-02-15T07:11:48.539Z,0.66
2023-02-15T07:14:16.282Z,0.74
2023-02-15T07:16:43.954Z,0.71
2023-02-15T07:19:11.862Z,0.67
2023-02-15T07:21:39.544Z,0.78
2023-02-15T07:24:08.796Z,0.28
2023-02-15T07:26:36.476Z,0.71
2023-02-15T07:29:04.191Z,0.72
2023-02-15T07:31:32.068Z,0.74
2023-02-15T07:33:59.791Z,0.73
2023-02-15T07:36:27.489Z,0.53
2023-02-15T07:38:55.125Z,0.59
2023-02-15T07:41:24.491Z,0.59
2023-02-15T07:43:52.148Z,0.74
2023-02-15T07:46:21.578Z,0.84
2023-02-15T07:48:49.908Z,0.79
2023-02-15T07:51:17.611Z,0.71
2023-02-15T07:53:45.640Z,0.94
2023-02-15T07:56:15.290Z,1.05
2023-02-15T07:58:53.180Z,0.93
2023-02-15T08:01:23.288Z,1.01
2023-02-15T08:03:51.749Z,1.04
2023-02-15T08:06:19.711Z,0.95
2023-02-15T08:08:47.415Z,0.97
2023-02-15T08:11:29.924Z,1.08
2023-02-15T08:14:01.231Z,1.29
2023-02-15T08:16:31.670Z,1.04
2023-02-15T08:19:00.787Z,1.23
2023-02-15T08:21:30.438Z,1.13
2023-02-15T08:23:58.981Z,1.41
2023-02-15T08:26:28.035Z,1.33
2023-02-15T08:28:56.196Z,1.40
2023-02-15T08:31:25.530Z,1.26
2023-02-15T08:33:55.766Z,1.39
2023-02-15T08:36:25.427Z,1.54
2023-02-15T08:38:53.354Z,1.62
2023-02-15T08:41:22.911Z,1.63
2023-02-15T08:43:54.516Z,1.63
2023-02-15T08:46:23.438Z,1.50
2023-02-15T08:48:53.399Z,1.50
2023-02-15T08:51:22.595Z,1.64
2023-02-15T08:53:51.877Z,1.62
2023-02-15T08:56:21.186Z,1.74
2023-02-15T08:58:48.984Z,1.86
2023-02-15T09:01:20.851Z,1.86
2023-02-15T09:03:50.669Z,1.66
2023-02-15T09:06:19.677Z,1.74
2023-02-15T09:08:47.420Z,1.90
2023-02-15T09:11:23.164Z,2.03
2023-02-15T09:13:53.485Z,1.87
2023-02-15T09:16:22.542Z,2.10
2023-02-15T09:18:51.283Z,2.17
2023-02-15T09:21:22.570Z,2.27
2023-02-15T09:23:53.020Z,2.32
2023-02-15T09:26:22.780Z,2.29
2023-02-15T09:28:56.400Z,2.39
2023-02-15T09:31:26.827Z,2.56
2023-02-15T09:33:55.394Z,2.56
2023-02-15T09:36:26.186Z,2.33
2023-02-15T09:38:58.187Z,2.44
2023-02-15T09:41:46.873Z,2.42
2023-02-15T09:44:25.340Z,2.46
2023-02-15T09:47:10.845Z,2.64
2023-02-15T09:49:45.900Z,2.80
2023-02-15T09:52:36.714Z,2.76
2023-02-15T09:55:23.268Z,2.81
2023-02-15T09:58:03.432Z,2.79
2023-02-15T10:00:43.531Z,2.92
2023-02-15T10:03:25.782Z,2.83
2023-02-15T10:06:07.591Z,3.00
2023-02-15T10:09:07.468Z,3.04
2023-02-15T10:11:50.926Z,3.24
2023-02-15T10:14:45.376Z,3.29
2023-02-15T10:17:26.855Z,3.24
2023-02-15T10:20:06.697Z,3.12
2023-02-15T10:22:44.415Z,3.07
2023-02-15T10:25:30.937Z,3.14
2023-02-15T10:28:04.168Z,2.77
2023-02-15T10:30:43.815Z,2.76
2023-02-15T10:33:21.071Z,2.84
2023-02-15T10:36:01.682Z,2.85
2023-02-15T10:38:39.213Z,2.71
2023-02-15T10:41:25.143Z,2.81
2023-02-15T10:44:12.540Z,2.74
2023-02-15T10:47:02.882Z,2.54
2023-02-15T10:49:48.048Z,2.65
2023-02-15T10:52:32.042Z,2.80
2023-02-15T10:55:09.875Z,2.65
2023-02-15T10:57:51.015Z,2.89
2023-02-15T11:00:23.463Z,2.84
2023-02-15T11:03:07.626Z,2.91
2023-02-15T11:05:43.595Z,3.05
2023-02-15T11:08:13.255Z,3.21
2023-02-15T11:10:44.964Z,3.10
2023-02-15T11:13:18.782Z,3.00
2023-02-15T11:15:51.098Z,3.09
2023-02-15T11:18:27.312Z,3.17
2023-02-15T11:20:58.702Z,3.19
2023-02-15T11:23:28.220Z,3.10
2023-02-15T11:25:59.865Z,3.22
2023-02-15T11:28:35.097Z,3.29
2023-02-15T11:31:13.593Z,3.31
2023-02-15T11:33:47.326Z,3.27
2023-02-15T11:36:19.415Z,3.45
2023-02-15T11:38:51.004Z,3.37
2023-02-15T11:41:25.073Z,3.42
2023-02-15T11:43:59.560Z,3.49
2023-02-15T11:46:27.444Z,3.70
2023-02-15T11:48:55.282Z,3.81
2023-02-15T11:51:24.704Z,3.71
2023-02-15T11:53:53.550Z,3.98
2023-02-15T11:56:24.037Z,3.83
2023-02-15T11:58:58.784Z,3.73
2023-02-15T12:01:32.750Z,3.81
2023-02-15T12:04:04.898Z,3.81
2023-02-15T12:06:36.110Z,4.02
2023-02-15T12:09:09.367Z,3.99
2023-02-15T12:11:39.240Z,4.15
2023-02-15T12:14:11.195Z,4.27
2023-02-15T12:16:48.449Z,4.19
2023-02-15T12:19:30.745Z,4.31
2023-02-15T12:22:00.252Z,4.39
2023-02-15T12:24:30.788Z,4.51
2023-02-15T12:27:02.534Z,4.30
2023-02-15T12:29:37.173Z,4.64
2023-02-15T12:32:05.504Z,4.62
2023-02-15T12:34:40.371Z,4.58
2023-02-15T12:37:16.812Z,4.74
2023-02-15T12:39:54.699Z,4.69
2023-02-15T12:42:22.805Z,4.69
2023-02-15T12:44:59.163Z,4.46
2023-02-15T12:47:29.251Z,4.48
2023-02-15T12:50:26.896Z,4.60
2023-02-15T12:53:08.921Z,4.74
2023-02-15T12:55:37.592Z,4.92
2023-02-15T12:58:16.359Z,4.69
2023-02-15T13:00:46.686Z,4.86
2023-02-15T13:03:20.434Z,4.98
2023-02-15T13:05:51.600Z,5.03
2023-02-15T13:08:22.450Z,4.87
2023-02-15T13:10:56.604Z,4.96
2023-02-15T13:13:27.375Z,5.04
2023-02-15T13:16:00.662Z,5.07
2023-02-15T13:18:33.517Z,5.26
2023-02-15T13:21:11.524Z,5.14
2023-02-15T13:23:41.792Z,5.13
2023-02-15T13:26:14.855Z,5.05
2023-02-15T13:28:46.457Z,4.68
2023-02-15T13:31:19.327Z,4.77
2023-02-15T13:33:51.270Z,4.89
2023-02-15T13:36:29.187Z,4.92
2023-02-15T13:39:17.490Z,4.89
2023-02-15T13:41:58.433Z,4.99
2023-02-15T13:44:43.584Z,5.06
2023-02-15T13:47:23.559Z,5.08
2023-02-15T13:50:10.250Z,5.15
2023-02-15T13:52:48.357Z,5.04
2023-02-15T13:55:28.374Z,4.94
2023-02-15T13:58:15.888Z,5.06
2023-02-15T14:00:49.851Z,4.89
2023-02-15T14:03:45.969Z,5.01
2023-02-15T14:06:29.582Z,4.98
2023-02-15T14:09:13.356Z,5.26
2023-02-15T14:11:50.423Z,5.03
2023-02-15T14:14:33.759Z,4.93
2023-02-15T14:17:10.264Z,4.93
2023-02-15T14:19:46.845Z,4.82
2023-02-15T14:22:25.045Z,5.01
2023-02-15T14:25:07.976Z,4.97
2023-02-15T14:27:53.170Z,4.92
2023-02-15T14:30:23.337Z,4.77
2023-02-15T14:32:54.926Z,4.84
2023-02-15T14:35:28.800Z,4.71
2023-02-15T14:38:02.563Z,4.75
2023-02-15T14:40:57.940Z,4.73
2023-02-15T14:43:35.853Z,4.79
2023-02-15T14:46:10.791Z,4.81
2023-02-15T14:48:44.525Z,4.89
2023-02-15T14:51:52.228Z,4.82
2023-02-15T14:54:56.944Z,4.83
2023-02-15T14:57:34.742Z,4.78
2023-02-15T15:00:25.929Z,5.00
2023-02-15T15:02:55.426Z,4.98
2023-02-15T15:05:30.206Z,4.93
2023-02-15T15:08:00.286Z,4.87
2023-02-15T15:10:47.842Z,4.66
2023-02-15T15:13:39.095Z,4.73
2023-02-15T15:16:27.698Z,4.73
2023-02-15T15:18:56.095Z,4.85
2023-02-15T15:21:56.153Z,4.66
2023-02-15T15:24:53.272Z,4.69
2023-02-15T15:27:51.652Z,4.78
2023-02-15T15:31:02.081Z,4.76
2023-02-15T15:34:16.339Z,4.76
2023-02-15T15:37:32.648Z,4.73
2023-02-15T15:40:40.053Z,4.67
2023-02-15T15:43:47.859Z,4.67
2023-02-15T15:46:32.869Z,4.65
2023-02-15T15:49:03.566Z,4.63
2023-02-15T15:51:34.106Z,4.62
2023-02-15T15:54:04.113Z,4.53
2023-02-15T15:56:35.490Z,4.62
2023-02-15T15:59:07.964Z,4.48
2023-02-15T16:01:41.550Z,4.45
2023-02-15T16:04:14.498Z,4.32
2023-02-15T16:06:42.855Z,4.24
2023-02-15T16:09:18.305Z,4.13
2023-02-15T16:11:47.464Z,4.00
2023-02-15T16:14:19.226Z,4.01
2023-02-15T16:16:53.398Z,3.96
2023-02-15T16:19:26.121Z,4.06
2023-02-15T16:21:54.729Z,4.00
2023-02-15T16:24:43.440Z,3.75
2023-02-15T16:27:24.777Z,3.71
2023-02-15T16:29:53.865Z,3.16
2023-02-15T16:32:24.186Z,3.46
2023-02-15T16:34:57.063Z,3.18
2023-02-15T16:37:28.099Z,2.98
2023-02-15T16:39:57.062Z,2.59
2023-02-15T16:42:26.036Z,2.57
2023-02-15T16:45:03.645Z,2.35
2023-02-15T16:47:35.430Z,2.07
2023-02-15T16:50:06.108Z,1.96
2023-02-15T16:52:34.217Z,2.06
2023-02-15T16:55:03.996Z,1.95
2023-02-15T16:57:36.786Z,1.94
2023-02-15T17:00:09.124Z,1.81
2023-02-15T17:02:55.024Z,1.72
2023-02-15T17:05:24.406Z,1.67
2023-02-15T17:08:06.576Z,1.55
2023-02-15T17:10:37.184Z,1.46
2023-02-15T17:13:11.598Z,1.56
2023-02-15T17:15:42.638Z,1.46
2023-02-15T17:18:17.446Z,1.41
2023-02-15T17:20:46.873Z,1.17
2023-02-15T17:23:27.634Z,1.04
2023-02-15T17:25:55.736Z,1.02
2023-02-15T17:28:26.315Z,0.92
2023-02-15T17:30:56.987Z,0.77
2023-02-15T17:33:29.945Z,0.72
2023-02-15T17:36:09.744Z,0.68
2023-02-15T17:38:39.167Z,0.76
2023-02-15T17:41:07.221Z,0.70
2023-02-15T17:43:34.855Z,0.73
2023-02-15T17:46:04.043Z,0.65
2023-02-15T17:48:34.147Z,0.65
2023-02-15T17:51:03.807Z,0.64
2023-02-15T17:53:32.265Z,0.61
2023-02-15T17:55:59.009Z,0.57
2023-02-15T17:58:26.753Z,0.59
2023-02-15T18:01:15.829Z,0.49
2023-02-15T18:04:05.858Z,0.55
2023-02-15T18:06:51.966Z,0.64
2023-02-15T18:09:39.056Z,0.62
2023-02-15T18:12:20.347Z,0.82
2023-02-15T18:14:48.175Z,0.90
2023-02-15T18:17:17.385Z,0.87
2023-02-15T18:19:47.619Z,1.00
2023-02-15T18:22:17.882Z,1.02
2023-02-15T18:24:46.287Z,1.04
2023-02-15T18:27:15.174Z,1.00
2023-02-15T18:29:43.289Z,0.97
2023-02-15T18:32:18.699Z,0.90
2023-02-15T18:34:49.400Z,0.94
2023-02-15T18:37:20.584Z,1.02
2023-02-15T18:39:49.378Z,1.05
2023-02-15T18:42:21.774Z,1.12
2023-02-15T18:44:50.162Z,1.22
2023-02-15T18:47:17.827Z,1.23
2023-02-15T18:49:45.458Z,1.20
2023-02-15T18:52:17.652Z,1.18
2023-02-15T18:54:46.157Z,1.10
2023-02-15T18:57:15.806Z,1.16
2023-02-15T18:59:44.030Z,1.08
2023-02-15T19:02:14.382Z,0.97
2023-02-15T19:04:42.633Z,1.05
2023-02-15T19:07:18.806Z,1.11
2023-02-15T19:09:49.088Z,1.21
2023-02-15T19:12:17.104Z,1.27
2023-02-15T19:14:44.921Z,1.27
2023-02-15T19:17:16.501Z,1.28
2023-02-15T19:19:44.497Z,1.30
2023-02-15T19:22:14.878Z,1.17
2023-02-15T19:24:46.551Z,1.09
2023-02-15T19:27:22.436Z,0.98
2023-02-15T19:29:50.953Z,0.74
2023-02-15T19:32:18.823Z,0.89
2023-02-15T19:34:46.440Z,1.04
2023-02-15T19:37:23.997Z,1.02
2023-02-15T19:39:53.693Z,1.12
2023-02-15T19:42:24.293Z,0.99
2023-02-15T19:44:54.337Z,1.04
2023-02-15T19:47:22.816Z,1.08
2023-02-15T19:49:50.596Z,1.15
2023-02-15T19:52:20.439Z,1.24
2023-02-15T19:54:49.550Z,1.19
2023-02-15T19:57:19.294Z,0.81
2023-02-15T19:59:47.051Z,1.09
2023-02-15T20:02:15.724Z,0.95
2023-02-15T20:04:43.532Z,0.95
2023-02-15T20:07:19.979Z,0.74
2023-02-15T20:09:47.749Z,0.81
2023-02-15T20:12:21.806Z,0.67
2023-02-15T20:14:49.497Z,0.62
2023-02-15T20:17:17.232Z,0.63
2023-02-15T20:19:46.057Z,0.55
2023-02-15T20:22:21.648Z,0.44
2023-02-15T20:24:49.324Z,0.40
2023-02-15T20:27:20.918Z,0.22
2023-02-15T20:29:50.316Z,0.23
2023-02-15T20:32:18.139Z,0.27
2023-02-15T20:34:45.857Z,0.21
2023-02-15T20:37:22.468Z,0.24
2023-02-15T20:39:50.125Z,0.08
2023-02-15T20:42:19.857Z,0.01
2023-02-15T20:44:47.687Z,-0.06
2023-02-15T20:47:15.308Z,-0.09
2023-02-15T20:49:42.968Z,-0.05
2023-02-15T20:52:20.017Z,-0.08
2023-02-15T20:54:47.939Z,0.00
2023-02-15T20:57:16.545Z,0.11
2023-02-15T20:59:46.115Z,0.16
2023-02-15T21:02:18.840Z,-0.16
2023-02-15T21:04:47.509Z,0.06
2023-02-15T21:07:15.900Z,0.00
2023-02-15T21:09:43.564Z,0.05
2023-02-15T21:12:14.506Z,0.00
2023-02-15T21:14:42.397Z,-0.07
2023-02-15T21:17:13.814Z,-0.08
2023-02-15T21:19:41.611Z,-0.04
2023-02-15T21:22:12.881Z,-0.11
2023-02-15T21:24:45.490Z,-0.09
2023-02-15T21:27:14.020Z,-0.08
2023-02-15T21:29:41.663Z,-0.12
2023-02-15T21:32:10.928Z,-0.18
2023-02-15T21:34:40.876Z,-0.24
2023-02-15T21:37:26.512Z,-0.23
2023-02-15T21:39:54.327Z,-0.30
2023-02-15T21:42:35.964Z,-0.36
2023-02-15T21:45:21.845Z,-0.38
2023-02-15T21:47:52.341Z,-0.25
2023-02-15T21:50:41.342Z,-0.13
2023-02-15T21:53:13.611Z,-0.13
2023-02-15T21:55:41.318Z,-0.15
2023-02-15T21:58:19.318Z,-0.01
2023-02-15T22:00:47.040Z,0.15
2023-02-15T22:03:14.775Z,0.23
2023-02-15T22:05:43.860Z,0.30
2023-02-15T22:08:14.006Z,0.32
2023-02-15T22:10:43.038Z,0.23
2023-02-15T22:13:15.464Z,0.10
2023-02-15T22:15:43.503Z,0.28
2023-02-15T22:18:21.486Z,0.03
2023-02-15T22:20:50.708Z,0.16
2023-02-15T22:23:18.370Z,0.16
2023-02-15T22:25:50.345Z,0.14
2023-02-15T22:28:18.104Z,0.08
2023-02-15T22:30:46.394Z,0.03
2023-02-15T22:33:24.466Z,0.06
2023-02-15T22:35:53.533Z,0.04
2023-02-15T22:38:21.277Z,0.03
2023-02-15T22:40:50.740Z,0.05
2023-02-15T22:43:28.814Z,-0.02
2023-02-15T22:46:00.473Z,-0.11
2023-02-15T22:48:28.597Z,-0.08
2023-02-15T22:50:57.960Z,-0.07
2023-02-15T22:53:25.692Z,-0.11
2023-02-15T22:55:53.988Z,-0.13
2023-02-15T22:58:24.671Z,-0.19
2023-02-15T23:00:52.703Z,-0.26
2023-02-15T23:03:23.074Z,-0.31
2023-02-15T23:05:51.341Z,-0.32
2023-02-15T23:08:20.291Z,-0.40
2023-02-15T23:10:54.335Z,-0.38
2023-02-15T23:13:26.132Z,-0.57
2023-02-15T23:15:57.421Z,-0.66
2023-02-15T23:18:28.663Z,-0.71
2023-02-15T23:20:58.799Z,-0.65
2023-02-15T23:23:33.988Z,-0.75
2023-02-15T23:26:04.194Z,-0.72
2023-02-15T23:28:36.203Z,-0.64
2023-02-15T23:31:10.640Z,-0.63
2023-02-15T23:33:38.384Z,-0.78
2023-02-15T23:36:06.402Z,-0.83
2023-02-15T23:38:35.466Z,-0.89
2023-02-15T23:41:18.998Z,-0.90
2023-02-15T23:43:49.952Z,-0.91
2023-02-15T23:46:30.653Z,-0.90
2023-02-15T23:48:58.381Z,-0.87
2023-02-15T23:51:30.538Z,-0.86
2023-02-15T23:53:59.683Z,-0.95
2023-02-15T23:56:27.405Z,-1.04
2023-02-15T23:58:55.541Z,-1.20
